Time;durP1;ratioP1;P1;durP2;ratioP2;P2;SDS_P1;SDS_P2;PMS_P1;PMS_P2;Temp;Humidity;BMP_temperature;BMP_pressure;BME280_temperature;BME280_humidity;BME280_pressure;Samples;Min_cycle;Max_cycle;Signal;HPM_P1;HPM_P2
2023/03/21 00:00:56;;;;;;;1.10;0.70;;;9.70;99.90;;;;;;5054678;28;20450;-81
2023/03/21 00:03:24;;;;;;;1.07;0.60;;;9.70;99.90;;;;;;5054364;28;20453;-81
2023/03/21 00:05:52;;;;;;;1.17;0.50;;;9.70;99.90;;;;;;5054594;28;20815;-81
2023/03/21 00:08:19;;;;;;;0.83;0.60;;;9.70;99.90;;;;;;5054413;28;20462;-80
2023/03/21 00:10:46;;;;;;;0.60;0.50;;;9.70;99.90;;;;;;5054428;28;20564;-81
2023/03/21 00:13:15;;;;;;;0.70;0.60;;;9.70;99.90;;;;;;5054248;28;20443;-81
2023/03/21 00:15:49;;;;;;;0.60;0.50;;;9.70;99.90;;;;;;5054896;28;20450;-81
2023/03/21 00:18:16;;;;;;;1.37;0.53;;;9.70;99.90;;;;;;5054300;28;20524;-81
2023/03/21 00:20:45;;;;;;;1.23;1.00;;;9.70;99.90;;;;;;5054308;28;20454;-80
2023/03/21 00:23:12;;;;;;;0.93;0.70;;;9.70;99.90;;;;;;5054204;28;20508;-81
2023/03/21 00:25:38;;;;;;;0.77;0.70;;;9.70;99.90;;;;;;5054194;28;20496;-80
2023/03/21 00:28:05;;;;;;;0.77;0.77;;;9.70;99.90;;;;;;5054072;28;20454;-81
2023/03/21 00:30:33;;;;;;;1.03;1.03;;;9.70;99.90;;;;;;5054026;28;20484;-81
2023/03/21 00:33:00;;;;;;;1.50;0.80;;;9.70;99.90;;;;;;5053790;28;20925;-81
2023/03/21 00:35:27;;;;;;;0.80;0.70;;;9.70;99.90;;;;;;5053653;28;20450;-80
2023/03/21 00:37:53;;;;;;;0.67;0.43;;;9.70;99.90;;;;;;5053587;28;20970;-80
2023/03/21 00:40:20;;;;;;;4.40;0.97;;;9.60;99.90;;;;;;5053950;28;20521;-80
2023/03/21 00:42:47;;;;;;;0.57;0.57;;;9.70;99.90;;;;;;5053584;28;20930;-81
2023/03/21 00:45:15;;;;;;;0.40;0.40;;;9.70;99.90;;;;;;5053844;28;20434;-80
2023/03/21 00:47:43;;;;;;;0.60;0.53;;;9.70;99.90;;;;;;5053516;28;20477;-81
2023/03/21 00:50:11;;;;;;;0.60;0.60;;;9.70;99.90;;;;;;5053283;28;20497;-81
2023/03/21 00:52:38;;;;;;;0.60;0.60;;;9.60;99.90;;;;;;5053712;28;20446;-80
2023/03/21 00:55:06;;;;;;;0.73;0.70;;;9.60;99.90;;;;;;5053678;28;20458;-81
2023/03/21 00:57:33;;;;;;;0.40;0.40;;;9.60;99.90;;;;;;5053638;28;20446;-81
2023/03/21 00:59:59;;;;;;;1.43;0.73;;;9.60;99.90;;;;;;5053545;28;20474;-80
2023/03/21 01:02:26;;;;;;;1.40;0.70;;;9.60;99.90;;;;;;5053572;28;20504;-80
2023/03/21 01:04:54;;;;;;;2.73;0.87;;;9.60;99.90;;;;;;5053547;28;20450;-81
2023/03/21 01:07:21;;;;;;;1.00;1.00;;;9.60;99.90;;;;;;5053228;28;20446;-80
2023/03/21 01:09:48;;;;;;;0.77;0.77;;;9.60;99.90;;;;;;5053282;28;20479;-81
2023/03/21 01:12:15;;;;;;;0.50;0.50;;;9.60;99.90;;;;;;5053102;28;21042;-81
2023/03/21 01:14:42;;;;;;;0.60;0.60;;;9.70;99.90;;;;;;5053606;28;20460;-81
2023/03/21 01:17:09;;;;;;;0.80;0.70;;;9.70;99.90;;;;;;5053373;28;20446;-80
2023/03/21 01:19:35;;;;;;;1.03;0.90;;;9.70;99.90;;;;;;5053234;28;20557;-81
2023/03/21 01:22:04;;;;;;;1.43;1.17;;;9.70;99.90;;;;;;5053332;28;20446;-81
2023/03/21 01:24:31;;;;;;;0.43;0.43;;;9.70;99.90;;;;;;5053019;28;20438;-81
2023/03/21 01:26:57;;;;;;;0.70;0.70;;;9.70;99.90;;;;;;5053012;28;20446;-81
2023/03/21 01:29:24;;;;;;;0.70;0.70;;;9.60;99.90;;;;;;5053192;28;20523;-81
2023/03/21 01:31:51;;;;;;;4.90;0.93;;;9.60;99.90;;;;;;5052823;28;21020;-81
2023/03/21 01:34:17;;;;;;;0.70;0.70;;;9.60;99.90;;;;;;5053182;28;20857;-81
2023/03/21 01:36:44;;;;;;;1.23;0.77;;;9.60;99.90;;;;;;5053217;28;20450;-81
2023/03/21 01:39:12;;;;;;;0.73;0.60;;;9.50;99.90;;;;;;5053057;28;20469;-81
2023/03/21 01:41:41;;;;;;;0.70;0.57;;;9.60;99.90;;;;;;5053141;28;20447;-81
2023/03/21 01:44:14;;;;;;;0.50;0.50;;;9.60;99.90;;;;;;5052862;28;20446;-81
2023/03/21 01:46:43;;;;;;;0.50;0.50;;;9.60;99.90;;;;;;5054976;28;20430;-81
2023/03/21 01:49:16;;;;;;;0.73;0.73;;;9.50;99.90;;;;;;5056772;28;20478;-82
2023/03/21 01:51:46;;;;;;;1.30;0.80;;;9.50;99.90;;;;;;5056813;28;20557;-82
2023/03/21 01:54:18;;;;;;;0.60;0.60;;;9.60;99.90;;;;;;5056883;28;20438;-82
2023/03/21 01:56:46;;;;;;;2.63;1.43;;;9.60;99.90;;;;;;5056825;28;20418;-82
2023/03/21 01:59:20;;;;;;;1.23;0.97;;;9.60;99.90;;;;;;5056690;28;20515;-85
2023/03/21 02:01:48;;;;;;;1.10;0.60;;;9.60;99.90;;;;;;5056980;28;20433;-84
2023/03/21 02:04:21;;;;;;;1.00;0.50;;;9.50;99.90;;;;;;5056667;28;20434;-85
2023/03/21 02:06:53;;;;;;;0.70;0.70;;;9.50;99.90;;;;;;5057462;28;20484;-85
2023/03/21 02:09:26;;;;;;;0.40;0.40;;;9.40;99.90;;;;;;5056837;28;20842;-85
2023/03/21 02:11:54;;;;;;;0.80;0.80;;;9.40;99.90;;;;;;5056855;28;20492;-85
2023/03/21 02:14:20;;;;;;;1.20;1.10;;;9.40;99.90;;;;;;5056530;28;20448;-85
2023/03/21 02:16:53;;;;;;;1.23;0.90;;;9.40;99.90;;;;;;5056692;28;20503;-85
2023/03/21 02:19:58;;;;;;;1.37;0.53;;;9.30;99.90;;;;;;5056590;28;20470;-85
2023/03/21 02:22:54;;;;;;;1.27;0.70;;;9.30;99.90;;;;;;5056621;28;20423;-85
2023/03/21 02:25:49;;;;;;;0.63;0.50;;;9.30;99.90;;;;;;5030776;28;20499;-85
2023/03/21 02:28:21;;;;;;;0.73;0.73;;;9.30;99.90;;;;;;5043502;28;20510;-83
2023/03/21 02:31:14;;;;;;;3.03;1.17;;;9.30;99.90;;;;;;5056390;28;20458;-84
2023/03/21 02:34:22;;;;;;;0.60;0.60;;;9.30;99.90;;;;;;5056461;28;20438;-85
2023/03/21 02:37:04;;;;;;;1.43;0.60;;;9.30;99.90;;;;;;5056387;28;20445;-85
2023/03/21 02:39:42;;;;;;;1.43;0.60;;;9.20;99.90;;;;;;5055973;28;21000;-85
2023/03/21 02:42:15;;;;;;;1.67;0.70;;;9.20;99.90;;;;;;5056253;28;20456;-85
2023/03/21 02:44:46;;;;;;;0.80;0.73;;;9.20;99.90;;;;;;5056375;28;20458;-85
2023/03/21 02:47:17;;;;;;;0.80;0.50;;;9.10;99.90;;;;;;5055870;28;20415;-85
2023/03/21 02:49:50;;;;;;;0.50;0.50;;;9.20;99.90;;;;;;5055688;28;20493;-85
2023/03/21 02:52:22;;;;;;;0.60;0.53;;;9.10;99.90;;;;;;5055970;28;20474;-85
2023/03/21 02:54:50;;;;;;;2.00;1.07;;;9.10;99.90;;;;;;5055665;28;20427;-85
2023/03/21 02:57:19;;;;;;;1.80;0.90;;;9.10;99.90;;;;;;5055556;28;20822;-85
2023/03/21 02:59:48;;;;;;;1.43;0.80;;;9.10;99.90;;;;;;5055827;28;20481;-83
2023/03/21 03:02:17;;;;;;;0.50;0.50;;;9.10;99.90;;;;;;5055560;28;20804;-82
2023/03/21 03:04:43;;;;;;;1.27;0.60;;;9.10;99.90;;;;;;5055764;28;20446;-82
2023/03/21 03:07:19;;;;;;;2.33;1.20;;;9.10;99.90;;;;;;5055446;28;20435;-82
2023/03/21 03:10:02;;;;;;;1.03;0.50;;;9.10;99.90;;;;;;5055599;28;20527;-82
2023/03/21 03:12:37;;;;;;;0.50;0.50;;;9.10;99.90;;;;;;5055597;28;20470;-82
2023/03/21 03:15:16;;;;;;;0.83;0.70;;;9.00;99.90;;;;;;5055631;28;20434;-82
2023/03/21 03:17:51;;;;;;;0.60;0.60;;;9.10;99.90;;;;;;5055711;28;20470;-82
2023/03/21 03:20:30;;;;;;;0.60;0.60;;;9.10;99.90;;;;;;5055519;28;20426;-82
2023/03/21 03:23:07;;;;;;;1.73;0.90;;;9.10;99.90;;;;;;5055463;28;20431;-82
2023/03/21 03:25:39;;;;;;;0.90;0.90;;;9.10;99.90;;;;;;5055406;28;20456;-82
2023/03/21 03:28:07;;;;;;;0.70;0.70;;;9.10;99.90;;;;;;5055047;28;20441;-82
2023/03/21 03:30:36;;;;;;;0.97;0.53;;;9.00;99.90;;;;;;5055261;28;20454;-82
2023/03/21 03:33:06;;;;;;;1.13;0.73;;;9.00;99.90;;;;;;5055158;28;20486;-82
2023/03/21 03:35:33;;;;;;;1.30;0.73;;;9.00;99.90;;;;;;5055161;28;20530;-82
2023/03/21 03:38:04;;;;;;;1.00;0.87;;;9.00;99.90;;;;;;5055068;28;20450;-82
2023/03/21 03:40:36;;;;;;;1.70;0.87;;;9.00;99.90;;;;;;5055216;28;20434;-82
2023/03/21 03:43:07;;;;;;;1.13;0.67;;;9.00;99.90;;;;;;5054856;28;20914;-82
2023/03/21 03:45:37;;;;;;;0.70;0.60;;;8.90;99.90;;;;;;5055028;28;20411;-82
2023/03/21 03:48:07;;;;;;;1.13;0.77;;;8.90;99.90;;;;;;5054644;28;20930;-82
2023/03/21 03:50:39;;;;;;;0.57;0.57;;;9.00;99.90;;;;;;5054480;28;20478;-82
2023/03/21 03:53:19;;;;;;;0.60;0.50;;;8.90;99.90;;;;;;5054838;28;20485;-82
2023/03/21 03:55:47;;;;;;;0.70;0.70;;;8.90;99.90;;;;;;5054863;28;20442;-82
2023/03/21 03:58:18;;;;;;;0.90;0.50;;;8.90;99.90;;;;;;5054728;28;20478;-82
2023/03/21 04:00:45;;;;;;;0.77;0.60;;;8.90;99.90;;;;;;5054450;28;20946;-82
2023/03/21 04:03:12;;;;;;;2.00;0.60;;;8.90;99.90;;;;;;5054356;28;20450;-82
2023/03/21 04:05:40;;;;;;;0.60;0.60;;;8.80;99.90;;;;;;5054531;28;20860;-82
2023/03/21 04:08:08;;;;;;;0.53;0.53;;;8.80;99.90;;;;;;5054240;28;20812;-82
2023/03/21 04:10:35;;;;;;;0.53;0.53;;;8.70;99.90;;;;;;5054152;28;20442;-81
2023/03/21 04:13:02;;;;;;;0.70;0.70;;;8.70;99.90;;;;;;5054051;28;20929;-81
2023/03/21 04:15:29;;;;;;;1.33;0.63;;;8.70;99.90;;;;;;5054123;28;20945;-81
2023/03/21 04:17:56;;;;;;;0.50;0.50;;;8.70;99.90;;;;;;5054210;28;20439;-81
2023/03/21 04:20:22;;;;;;;0.83;0.50;;;8.70;99.90;;;;;;5054344;28;20462;-84
2023/03/21 04:22:50;;;;;;;0.57;0.57;;;8.60;99.90;;;;;;5054388;28;20492;-85
2023/03/21 04:25:18;;;;;;;1.10;0.67;;;8.60;99.90;;;;;;5054002;28;21004;-85
2023/03/21 04:27:45;;;;;;;0.50;0.50;;;8.50;99.90;;;;;;5054020;28;20434;-85
2023/03/21 04:30:12;;;;;;;0.53;0.53;;;8.40;99.90;;;;;;5054108;28;20485;-85
2023/03/21 04:32:39;;;;;;;1.47;0.60;;;8.30;99.90;;;;;;5054005;28;20492;-85
2023/03/21 04:35:08;;;;;;;1.40;0.63;;;8.30;99.90;;;;;;5054105;28;20469;-85
2023/03/21 04:37:35;;;;;;;0.53;0.53;;;8.20;99.90;;;;;;5053745;28;20461;-84
2023/03/21 04:40:05;;;;;;;1.33;0.40;;;8.10;99.90;;;;;;5053646;28;20978;-85
2023/03/21 04:42:34;;;;;;;3.43;1.13;;;8.00;99.90;;;;;;5053954;28;20529;-85
2023/03/21 04:45:01;;;;;;;1.23;0.73;;;8.00;99.90;;;;;;5053969;28;20453;-85
2023/03/21 04:47:28;;;;;;;0.93;0.50;;;7.90;99.90;;;;;;5053565;28;20867;-85
2023/03/21 04:49:55;;;;;;;1.50;0.53;;;7.80;99.90;;;;;;5053401;28;20481;-85
2023/03/21 04:52:22;;;;;;;0.60;0.60;;;7.80;99.90;;;;;;5053718;28;20514;-84
2023/03/21 04:54:49;;;;;;;0.67;0.60;;;7.70;99.90;;;;;;5053515;28;20438;-84
2023/03/21 04:57:16;;;;;;;0.83;0.70;;;7.70;99.90;;;;;;5053466;28;20431;-85
2023/03/21 04:59:44;;;;;;;0.60;0.50;;;7.60;99.90;;;;;;5053365;28;20982;-85
2023/03/21 05:02:11;;;;;;;1.90;0.80;;;7.60;99.90;;;;;;5053608;28;20442;-85
2023/03/21 05:04:38;;;;;;;0.43;0.37;;;7.60;99.90;;;;;;5053650;28;20532;-85
2023/03/21 05:07:05;;;;;;;0.50;0.40;;;7.50;99.90;;;;;;5053580;28;20453;-85
2023/03/21 05:09:31;;;;;;;0.57;0.57;;;7.50;99.90;;;;;;5053482;28;20471;-84
2023/03/21 05:11:58;;;;;;;0.90;0.80;;;7.50;99.90;;;;;;5053439;28;20844;-85
2023/03/21 05:14:27;;;;;;;0.40;0.40;;;7.40;99.90;;;;;;5053196;28;20431;-85
2023/03/21 05:16:56;;;;;;;1.23;0.70;;;7.40;99.90;;;;;;5053477;28;20520;-85
2023/03/21 05:19:33;;;;;;;2.20;0.70;;;7.50;99.90;;;;;;5053295;28;20475;-85
2023/03/21 05:22:03;;;;;;;0.57;0.57;;;7.50;99.90;;;;;;5053344;28;20430;-84
2023/03/21 05:24:30;;;;;;;0.80;0.60;;;7.50;99.90;;;;;;5053351;28;20470;-85
2023/03/21 05:27:00;;;;;;;1.10;0.63;;;7.60;99.90;;;;;;5053024;28;20482;-85
2023/03/21 05:29:28;;;;;;;0.47;0.47;;;7.60;99.90;;;;;;5053250;28;20510;-85
2023/03/21 05:31:56;;;;;;;1.00;0.87;;;7.60;99.90;;;;;;5052908;28;21012;-85
2023/03/21 05:34:24;;;;;;;0.87;0.70;;;7.60;99.90;;;;;;5052971;28;20458;-85
2023/03/21 05:36:51;;;;;;;0.50;0.50;;;7.70;99.90;;;;;;5053235;28;20446;-85
2023/03/21 05:39:18;;;;;;;0.60;0.60;;;7.70;99.90;;;;;;5053153;28;20976;-85
2023/03/21 05:41:44;;;;;;;1.03;0.67;;;7.70;99.90;;;;;;5053199;28;20453;-85
2023/03/21 05:44:11;;;;;;;0.53;0.53;;;7.80;99.90;;;;;;5053296;28;20446;-85
2023/03/21 05:46:38;;;;;;;0.60;0.50;;;7.90;99.90;;;;;;5053127;28;20481;-85
2023/03/21 05:49:06;;;;;;;0.63;0.63;;;8.00;99.90;;;;;;5052755;28;20489;-84
2023/03/21 05:51:33;;;;;;;7.80;1.10;;;8.10;99.90;;;;;;5053038;28;20449;-84
2023/03/21 05:54:00;;;;;;;0.93;0.80;;;8.10;99.90;;;;;;5052871;28;20439;-85
2023/03/21 05:56:26;;;;;;;1.33;0.80;;;8.20;99.90;;;;;;5053065;28;20450;-84
2023/03/21 05:58:53;;;;;;;0.60;0.53;;;8.20;99.90;;;;;;5053019;28;20470;-85
2023/03/21 06:01:20;;;;;;;0.63;0.63;;;8.20;99.90;;;;;;5053028;28;20459;-85
2023/03/21 06:03:46;;;;;;;4.47;1.07;;;8.30;99.90;;;;;;5052753;28;20435;-83
2023/03/21 06:06:14;;;;;;;0.50;0.50;;;8.30;99.90;;;;;;5053020;28;20454;-85
2023/03/21 06:08:41;;;;;;;0.60;0.50;;;8.40;99.90;;;;;;5053237;28;20573;-85
2023/03/21 06:11:19;;;;;;;1.17;0.70;;;8.50;99.90;;;;;;5052951;28;20481;-85
2023/03/21 06:13:46;;;;;;;0.77;0.77;;;8.50;99.90;;;;;;5052923;28;20470;-85
2023/03/21 06:16:12;;;;;;;0.43;0.43;;;8.50;99.90;;;;;;5054357;28;20458;-85
2023/03/21 06:18:39;;;;;;;0.90;0.50;;;8.60;99.90;;;;;;5053206;28;20467;-85
2023/03/21 06:21:06;;;;;;;0.47;0.47;;;8.60;99.90;;;;;;5052714;28;20496;-85
2023/03/21 06:23:35;;;;;;;0.87;0.60;;;8.70;99.90;;;;;;5052575;28;20449;-85
2023/03/21 06:26:02;;;;;;;0.33;0.33;;;8.70;99.90;;;;;;5052774;28;20470;-85
2023/03/21 06:28:29;;;;;;;1.33;0.90;;;8.70;99.90;;;;;;5052803;28;20481;-85
2023/03/21 06:30:55;;;;;;;0.50;0.40;;;8.70;99.90;;;;;;5053560;28;20807;-85
2023/03/21 06:33:22;;;;;;;0.50;0.50;;;8.80;99.90;;;;;;5055580;28;20485;-85
2023/03/21 06:35:51;;;;;;;2.13;0.90;;;8.80;99.90;;;;;;5056530;28;20862;-85
2023/03/21 06:38:18;;;;;;;0.77;0.63;;;8.90;99.90;;;;;;5055921;28;21020;-85
2023/03/21 06:40:47;;;;;;;1.90;0.90;;;9.00;99.90;;;;;;5056361;28;20446;-85
2023/03/21 06:43:14;;;;;;;1.27;0.77;;;9.10;99.90;;;;;;5056010;28;20807;-85
2023/03/21 06:45:41;;;;;;;1.10;0.60;;;9.10;99.90;;;;;;5056189;28;20504;-85
2023/03/21 06:48:08;;;;;;;1.37;0.80;;;9.10;99.90;;;;;;5056093;28;20446;-85
2023/03/21 06:50:35;;;;;;;1.03;0.80;;;9.10;99.90;;;;;;5055637;28;20481;-85
2023/03/21 06:53:02;;;;;;;0.80;0.80;;;9.20;99.90;;;;;;5055720;28;20482;-85
2023/03/21 06:55:30;;;;;;;0.77;0.70;;;9.20;99.90;;;;;;5056171;28;20441;-85
2023/03/21 06:57:58;;;;;;;0.60;0.50;;;9.20;99.90;;;;;;5058080;28;20450;-86
2023/03/21 07:00:25;;;;;;;0.80;0.60;;;9.20;99.90;;;;;;5068990;28;20442;-86
2023/03/21 07:02:52;;;;;;;0.67;0.67;;;9.30;99.90;;;;;;5068128;28;20965;-84
2023/03/21 07:05:19;;;;;;;1.07;0.80;;;9.30;99.90;;;;;;5069978;28;20505;-85
2023/03/21 07:07:45;;;;;;;0.63;0.47;;;9.30;99.90;;;;;;5057554;28;20438;-85
2023/03/21 07:10:12;;;;;;;0.60;0.60;;;9.40;99.90;;;;;;5057784;28;20473;-85
2023/03/21 07:12:39;;;;;;;0.50;0.50;;;9.40;99.90;;;;;;5056854;28;20482;-85
2023/03/21 07:15:10;;;;;;;0.40;0.37;;;9.40;99.90;;;;;;5055932;28;20964;-85
2023/03/21 07:17:37;;;;;;;0.50;0.50;;;9.50;99.90;;;;;;5055647;28;20431;-85
2023/03/21 07:20:06;;;;;;;0.80;0.60;;;9.60;99.90;;;;;;5055777;28;20474;-85
2023/03/21 07:22:33;;;;;;;0.60;0.60;;;9.70;99.90;;;;;;5055758;28;20458;-85
2023/03/21 07:25:00;;;;;;;2.27;1.00;;;9.80;99.90;;;;;;5055444;28;20493;-85
2023/03/21 07:27:27;;;;;;;3.13;1.03;;;9.80;99.90;;;;;;5055263;28;20435;-85
2023/03/21 07:29:53;;;;;;;0.50;0.50;;;9.90;99.90;;;;;;5055849;28;20974;-86
2023/03/21 07:32:22;;;;;;;1.03;0.63;;;9.90;99.90;;;;;;5055326;28;20446;-85
2023/03/21 07:34:48;;;;;;;0.57;0.47;;;9.90;99.90;;;;;;5055059;28;20434;-85
2023/03/21 07:37:15;;;;;;;0.77;0.70;;;10.00;99.90;;;;;;5055065;28;20922;-85
2023/03/21 07:39:43;;;;;;;0.80;0.60;;;10.10;99.90;;;;;;5055112;28;20455;-86
2023/03/21 07:42:10;;;;;;;0.50;0.50;;;10.30;99.90;;;;;;5055106;28;20954;-85
2023/03/21 07:44:37;;;;;;;1.50;0.50;;;10.40;99.90;;;;;;5054065;28;20930;-86
2023/03/21 07:47:04;;;;;;;1.57;0.50;;;10.60;99.90;;;;;;5055446;28;20446;-86
2023/03/21 07:49:32;;;;;;;0.40;0.40;;;10.90;99.90;;;;;;5054728;28;20481;-85
2023/03/21 07:52:00;;;;;;;1.60;0.60;;;11.20;99.90;;;;;;5054932;28;20459;-85
2023/03/21 07:54:27;;;;;;;0.67;0.50;;;11.50;99.90;;;;;;5054734;28;20481;-86
2023/03/21 07:56:54;;;;;;;1.37;0.83;;;11.80;99.90;;;;;;5055219;28;20525;-86
2023/03/21 07:59:21;;;;;;;0.83;0.80;;;12.10;99.90;;;;;;5054873;28;20869;-86
2023/03/21 08:01:48;;;;;;;0.73;0.73;;;12.20;99.90;;;;;;5054881;28;20427;-86
2023/03/21 08:04:14;;;;;;;5.57;0.77;;;12.50;99.90;;;;;;5055055;28;20445;-86
2023/03/21 08:06:42;;;;;;;0.43;0.43;;;12.80;99.90;;;;;;5054990;28;20450;-85
2023/03/21 08:09:09;;;;;;;0.50;0.50;;;12.90;99.90;;;;;;5054512;28;20467;-86
2023/03/21 08:11:36;;;;;;;0.70;0.60;;;13.00;99.90;;;;;;5054795;28;20533;-86
2023/03/21 08:14:03;;;;;;;0.67;0.50;;;13.10;99.90;;;;;;5054359;28;20485;-86
2023/03/21 08:16:30;;;;;;;0.80;0.40;;;13.20;99.90;;;;;;5054375;28;20820;-86
2023/03/21 08:18:56;;;;;;;0.70;0.70;;;13.00;99.90;;;;;;5054546;28;20466;-85
2023/03/21 08:21:23;;;;;;;1.00;0.50;;;12.90;99.90;;;;;;5054581;28;20449;-86
2023/03/21 08:23:52;;;;;;;3.07;0.80;;;12.80;99.90;;;;;;5054456;28;20458;-86
2023/03/21 08:26:20;;;;;;;0.80;0.70;;;12.70;99.90;;;;;;5054519;28;20459;-86
2023/03/21 08:28:47;;;;;;;0.60;0.60;;;12.80;99.90;;;;;;5054283;28;20466;-86
2023/03/21 08:31:14;;;;;;;0.80;0.53;;;12.80;99.90;;;;;;5054374;28;20450;-86
2023/03/21 08:33:40;;;;;;;0.70;0.50;;;12.90;99.90;;;;;;5054201;28;20488;-86
2023/03/21 08:36:08;;;;;;;0.50;0.50;;;13.00;99.90;;;;;;5054395;28;20478;-84
2023/03/21 08:38:35;;;;;;;0.50;0.50;;;13.20;99.90;;;;;;5054278;28;20473;-84
2023/03/21 08:41:04;;;;;;;0.60;0.60;;;13.40;99.90;;;;;;5054989;28;20500;-85
2023/03/21 08:43:31;;;;;;;0.63;0.57;;;13.70;99.90;;;;;;5054301;28;20458;-85
2023/03/21 08:45:58;;;;;;;1.03;0.70;;;13.90;99.90;;;;;;5053792;28;20442;-85
2023/03/21 08:48:24;;;;;;;0.70;0.60;;;14.10;99.90;;;;;;5054930;28;20527;-85
2023/03/21 08:50:51;;;;;;;0.63;0.50;;;14.20;99.90;;;;;;5056783;28;20434;-84
2023/03/21 08:53:18;;;;;;;1.13;0.57;;;14.40;99.90;;;;;;5055454;28;20532;-85
2023/03/21 08:55:45;;;;;;;0.80;0.77;;;14.40;99.90;;;;;;5054645;28;20434;-85
2023/03/21 08:58:13;;;;;;;1.07;0.70;;;14.50;99.90;;;;;;5055480;28;20544;-84
2023/03/21 09:00:40;;;;;;;0.57;0.53;;;14.60;99.90;;;;;;5056883;28;20431;-86
2023/03/21 09:03:06;;;;;;;1.03;0.50;;;14.70;99.90;;;;;;5054853;28;20450;-84
2023/03/21 09:05:35;;;;;;;0.50;0.50;;;15.00;99.90;;;;;;5054475;28;20450;-85
2023/03/21 09:08:02;;;;;;;0.93;0.53;;;15.20;99.90;;;;;;5054017;28;21007;-84
2023/03/21 09:10:29;;;;;;;0.80;0.60;;;15.60;99.90;;;;;;5054383;28;20449;-85
2023/03/21 09:12:56;;;;;;;0.90;0.70;;;15.80;99.90;;;;;;5053893;28;20486;-85
2023/03/21 09:15:27;;;;;;;0.80;0.60;;;16.20;99.90;;;;;;5053643;28;20863;-85
2023/03/21 09:17:57;;;;;;;1.03;0.60;;;17.20;99.90;;;;;;5054132;28;20438;-85
2023/03/21 09:20:29;;;;;;;1.10;0.77;;;18.20;99.20;;;;;;5054180;28;20447;-86
2023/03/21 09:22:57;;;;;;;0.80;0.60;;;19.30;98.10;;;;;;5053615;28;20439;-86
2023/03/21 09:25:24;;;;;;;0.70;0.53;;;20.60;93.50;;;;;;5053220;28;20941;-86
2023/03/21 09:27:52;;;;;;;0.60;0.60;;;21.30;88.10;;;;;;5053002;28;20462;-86
2023/03/21 09:30:20;;;;;;;1.00;0.60;;;22.20;86.10;;;;;;5053536;28;20434;-86
2023/03/21 09:32:49;;;;;;;1.23;0.80;;;22.90;78.40;;;;;;5053283;28;20446;-86
2023/03/21 09:35:17;;;;;;;0.80;0.60;;;23.00;74.20;;;;;;5053057;28;20548;-84
2023/03/21 09:37:44;;;;;;;4.00;1.20;;;23.00;70.80;;;;;;5053296;28;20536;-83
2023/03/21 09:40:18;;;;;;;0.87;0.80;;;23.30;71.90;;;;;;5053202;28;20473;-84
2023/03/21 09:42:55;;;;;;;1.00;0.87;;;23.70;69.20;;;;;;5053056;28;20571;-85
2023/03/21 09:45:31;;;;;;;1.07;1.00;;;23.80;65.00;;;;;;5053182;28;20186;-85
2023/03/21 09:47:59;;;;;;;0.80;0.60;;;23.50;64.40;;;;;;5053546;28;20198;-85
2023/03/21 09:50:31;;;;;;;0.70;0.70;;;22.60;63.10;;;;;;5055001;28;20289;-85
2023/03/21 09:53:00;;;;;;;0.67;0.67;;;21.90;65.20;;;;;;5053409;28;20183;-86
2023/03/21 09:55:30;;;;;;;0.53;0.50;;;21.80;65.20;;;;;;5053348;28;20569;-85
2023/03/21 09:58:06;;;;;;;0.67;0.60;;;21.70;65.70;;;;;;5053355;28;20469;-85
2023/03/21 10:00:38;;;;;;;1.03;0.63;;;21.90;65.10;;;;;;5053475;28;20438;-86
2023/03/21 10:03:19;;;;;;;0.60;0.60;;;22.50;64.90;;;;;;5053938;28;20888;-86
2023/03/21 10:05:47;;;;;;;1.10;0.53;;;22.60;63.80;;;;;;5053807;28;20441;-86
2023/03/21 10:08:21;;;;;;;0.50;0.50;;;22.60;61.90;;;;;;5056770;28;20249;-86
2023/03/21 10:10:50;;;;;;;4.83;0.60;;;22.90;61.80;;;;;;5057436;28;20636;-86
2023/03/21 10:13:20;;;;;;;0.63;0.60;;;23.00;60.00;;;;;;5057799;28;20488;-82
2023/03/21 10:15:47;;;;;;;0.70;0.60;;;23.10;60.70;;;;;;5056832;28;20632;-82
2023/03/21 10:18:22;;;;;;;0.47;0.47;;;22.90;58.60;;;;;;5056817;28;20489;-82
2023/03/21 10:20:51;;;;;;;0.70;0.67;;;22.50;57.20;;;;;;5056763;28;20475;-82
2023/03/21 10:23:20;;;;;;;1.30;0.57;;;22.00;58.00;;;;;;5056431;28;20786;-82
2023/03/21 10:25:50;;;;;;;1.00;0.53;;;21.40;59.50;;;;;;5056526;28;20441;-81
2023/03/21 10:28:20;;;;;;;3.60;0.70;;;21.40;62.00;;;;;;5072810;28;20548;-83
2023/03/21 10:30:50;;;;;;;0.70;0.60;;;21.40;59.90;;;;;;5072140;28;20446;-81
2023/03/21 10:33:22;;;;;;;0.50;0.50;;;21.30;62.30;;;;;;5072543;28;20433;-82
2023/03/21 10:35:51;;;;;;;0.80;0.70;;;21.10;62.80;;;;;;5072104;28;20430;-82
2023/03/21 10:38:20;;;;;;;1.00;0.60;;;21.00;64.50;;;;;;5064736;28;20488;-83
2023/03/21 10:40:47;;;;;;;1.00;0.70;;;20.90;64.80;;;;;;5056265;28;20437;-82
2023/03/21 10:43:18;;;;;;;0.70;0.70;;;20.70;64.40;;;;;;5056337;28;20445;-83
2023/03/21 10:45:46;;;;;;;1.47;0.70;;;20.60;64.30;;;;;;5056345;28;20460;-82
2023/03/21 10:48:13;;;;;;;0.73;0.60;;;20.40;64.70;;;;;;5056137;28;20552;-82
2023/03/21 10:50:42;;;;;;;0.80;0.70;;;20.20;66.10;;;;;;5056193;28;20434;-82
2023/03/21 10:53:17;;;;;;;1.43;1.00;;;20.20;67.50;;;;;;5056044;28;20442;-82
2023/03/21 10:55:46;;;;;;;0.93;0.80;;;20.40;68.50;;;;;;5055929;28;20422;-82
2023/03/21 10:58:17;;;;;;;0.60;0.60;;;20.40;67.30;;;;;;5055977;28;20473;-83
2023/03/21 11:00:46;;;;;;;0.60;0.60;;;20.20;67.20;;;;;;5056895;28;20949;-82
2023/03/21 11:03:21;;;;;;;1.20;1.10;;;20.10;67.90;;;;;;5055965;28;20450;-82
2023/03/21 11:05:55;;;;;;;6.20;1.03;;;19.90;66.70;;;;;;5055900;28;20442;-82
2023/03/21 11:08:22;;;;;;;1.10;0.80;;;19.50;68.00;;;;;;5055791;28;20548;-82
2023/03/21 11:10:55;;;;;;;0.90;0.80;;;19.30;70.20;;;;;;5055828;28;20465;-82
2023/03/21 11:13:25;;;;;;;0.97;0.97;;;19.20;68.90;;;;;;5055894;28;20887;-82
2023/03/21 11:15:55;;;;;;;1.00;0.90;;;18.90;70.30;;;;;;5055452;28;20450;-83
2023/03/21 11:18:24;;;;;;;1.27;0.80;;;18.80;70.20;;;;;;5055185;28;20522;-82
2023/03/21 11:20:55;;;;;;;1.63;0.90;;;18.70;69.40;;;;;;5055598;28;20446;-82
2023/03/21 11:23:26;;;;;;;0.77;0.70;;;18.60;71.70;;;;;;5055312;28;20454;-82
2023/03/21 11:25:53;;;;;;;0.80;0.80;;;18.40;69.80;;;;;;5055893;28;20769;-82
2023/03/21 11:28:23;;;;;;;1.50;0.80;;;18.20;69.70;;;;;;5055467;28;20477;-82
2023/03/21 11:30:53;;;;;;;0.80;0.60;;;18.20;72.40;;;;;;5055459;28;20508;-82
2023/03/21 11:33:21;;;;;;;1.23;0.87;;;18.20;73.90;;;;;;5055110;28;20465;-82
2023/03/21 11:36:00;;;;;;;1.80;0.80;;;18.10;72.10;;;;;;5056045;28;20458;-82
2023/03/21 11:38:31;;;;;;;1.47;1.30;;;18.00;73.70;;;;;;5054933;28;20474;-82
2023/03/21 11:40:59;;;;;;;2.67;0.80;;;17.90;74.50;;;;;;5055044;28;20418;-82
2023/03/21 11:43:28;;;;;;;1.00;0.70;;;17.90;74.00;;;;;;5055190;28;20458;-82
2023/03/21 11:45:59;;;;;;;1.60;1.00;;;17.90;73.50;;;;;;5055309;28;20443;-82
2023/03/21 11:48:27;;;;;;;1.00;0.60;;;17.90;73.20;;;;;;5054464;28;21001;-82
2023/03/21 11:51:02;;;;;;;0.90;0.60;;;18.00;73.90;;;;;;5054841;28;20415;-82
2023/03/21 11:53:39;;;;;;;1.43;0.60;;;18.10;74.30;;;;;;5054947;28;20445;-82
2023/03/21 11:56:22;;;;;;;1.57;0.80;;;17.90;71.90;;;;;;5054702;28;20441;-82
2023/03/21 11:59:17;;;;;;;1.47;0.60;;;18.00;72.60;;;;;;5054964;28;20474;-82
2023/03/21 12:01:58;;;;;;;0.90;0.90;;;18.00;71.90;;;;;;5049476;28;20451;-82
2023/03/21 12:04:41;;;;;;;0.53;0.53;;;17.90;69.70;;;;;;5054779;28;20439;-82
2023/03/21 12:07:21;;;;;;;0.80;0.60;;;17.80;71.40;;;;;;5052868;28;20450;-82
2023/03/21 12:09:56;;;;;;;0.73;0.73;;;17.90;73.20;;;;;;5054730;28;20465;-82
2023/03/21 12:12:33;;;;;;;2.13;0.60;;;18.00;72.60;;;;;;5055286;28;20445;-82
2023/03/21 12:15:05;;;;;;;0.63;0.50;;;18.00;71.30;;;;;;5054556;28;20466;-82
2023/03/21 12:17:41;;;;;;;0.60;0.50;;;17.90;69.60;;;;;;5054538;28;20434;-82
2023/03/21 12:20:21;;;;;;;0.87;0.70;;;17.90;70.70;;;;;;5054223;28;20508;-82
2023/03/21 12:22:58;;;;;;;2.03;0.50;;;18.00;71.00;;;;;;5054421;28;20480;-82
2023/03/21 12:25:28;;;;;;;0.73;0.73;;;18.00;67.60;;;;;;5054405;28;20433;-82
2023/03/21 12:28:04;;;;;;;0.60;0.50;;;17.90;68.00;;;;;;5054327;28;20427;-82
2023/03/21 12:30:43;;;;;;;0.50;0.50;;;17.90;69.50;;;;;;5053454;28;20926;-83
2023/03/21 12:33:25;;;;;;;1.30;1.00;;;17.90;68.10;;;;;;5054249;28;20434;-81
2023/03/21 12:36:04;;;;;;;1.17;0.70;;;17.70;69.50;;;;;;5054506;28;20829;-81
2023/03/21 12:38:40;;;;;;;0.50;0.50;;;17.70;67.70;;;;;;5054042;28;20465;-80
2023/03/21 12:41:24;;;;;;;1.20;0.67;;;17.70;67.80;;;;;;5054723;28;20447;-81
2023/03/21 12:43:56;;;;;;;0.50;0.50;;;17.70;69.60;;;;;;5053701;28;20922;-81
2023/03/21 12:46:27;;;;;;;0.50;0.50;;;17.90;67.90;;;;;;5054029;28;20438;-81
2023/03/21 12:48:58;;;;;;;1.20;0.47;;;18.00;68.00;;;;;;5053605;28;20536;-81
2023/03/21 12:51:31;;;;;;;0.60;0.40;;;18.00;64.90;;;;;;5053566;28;20953;-81
2023/03/21 12:54:05;;;;;;;0.50;0.50;;;18.10;66.50;;;;;;5053783;28;20439;-81
2023/03/21 12:56:36;;;;;;;0.40;0.40;;;18.20;66.60;;;;;;5053859;28;20421;-81
2023/03/21 12:59:13;;;;;;;0.40;0.40;;;18.20;65.90;;;;;;5054450;28;20479;-86
2023/03/21 13:01:42;;;;;;;2.40;0.50;;;18.30;65.30;;;;;;5054274;28;20430;-86
2023/03/21 13:04:31;;;;;;;0.80;0.60;;;18.30;64.00;;;;;;5054497;28;20446;-85
2023/03/21 13:07:01;;;;;;;0.80;0.60;;;18.40;63.30;;;;;;5054653;28;20439;-86